Terminal Aerodrome Forecast
Issued by NWS

Home | Current Version | Previous Version | Text Only | Print | Product List | Glossary On
Versions: 1 2 3 4 5 6 7 8 9 10 11 12 13 14 15 16 17 18 19 20 21 22 23 24 25 26 27 28 29 30 31
000
FTUS43 KMKX 251402 AAB
TAFUES
TAF AMD
KUES 251402Z 2514/2612 28008KT 5SM BR SKC
     FM251500 29011G16KT P6SM SKC
     FM260100 29008KT P6SM SKC
     FM261100 30004KT P6SM SKC=

USA.gov is the U.S. government's official web portal to all federal, state and local government web resources and services.